Time;durP1;ratioP1;P1;durP2;ratioP2;P2;SDS_P1;SDS_P2;PMS_P1;PMS_P2;Temp;Humidity;BMP_temperature;BMP_pressure;BME280_temperature;BME280_humidity;BME280_pressure;Samples;Min_cycle;Max_cycle;Signal;HPM_P1;HPM_P2
2022/01/14 00:02:02;;;;;;;28.90;19.63;;;2.20;99.90;;;;;;5094363;28;20467;-62
2022/01/14 00:04:29;;;;;;;30.20;17.80;;;2.30;99.90;;;;;;5094536;28;20875;-62
2022/01/14 00:06:57;;;;;;;26.10;18.23;;;2.30;99.90;;;;;;5094181;28;20447;-62
2022/01/14 00:09:24;;;;;;;24.67;18.20;;;2.40;99.90;;;;;;5094289;28;20508;-61
2022/01/14 00:11:55;;;;;;;23.37;16.97;;;2.50;99.90;;;;;;5094328;28;20601;-62
2022/01/14 00:14:36;;;;;;;27.13;18.00;;;2.40;99.90;;;;;;5094391;28;20519;-62
2022/01/14 00:17:06;;;;;;;23.07;15.87;;;2.40;99.90;;;;;;5093954;28;20957;-62
2022/01/14 00:19:34;;;;;;;30.33;18.50;;;2.40;99.90;;;;;;5093449;28;20481;-62
2022/01/14 00:22:06;;;;;;;22.70;17.43;;;2.30;99.90;;;;;;5094048;28;20487;-62
2022/01/14 00:32:54;;;;;;;25.83;17.47;;;2.10;99.90;;;;;;5093765;28;20419;-62
2022/01/14 00:35:21;;;;;;;28.43;16.67;;;2.00;99.90;;;;;;5093851;28;20427;-62
2022/01/14 00:37:48;;;;;;;22.80;17.80;;;1.90;99.90;;;;;;5093693;28;20926;-62
2022/01/14 00:40:15;;;;;;;24.60;17.30;;;1.80;99.90;;;;;;5093597;28;20479;-62
2022/01/14 00:42:42;;;;;;;22.63;16.57;;;1.90;99.90;;;;;;5093517;28;20444;-62
2022/01/14 00:45:11;;;;;;;23.57;17.27;;;2.00;99.90;;;;;;5093558;28;20432;-62
2022/01/14 00:47:40;;;;;;;24.07;16.60;;;2.10;99.90;;;;;;5093761;28;20806;-62
2022/01/14 00:50:11;;;;;;;26.90;17.30;;;2.10;99.90;;;;;;5093400;28;20949;-62
2022/01/14 00:52:40;;;;;;;24.30;16.80;;;2.20;99.90;;;;;;5093796;28;20428;-62
2022/01/14 00:55:12;;;;;;;20.17;15.00;;;2.20;99.90;;;;;;5093778;28;20447;-62
2022/01/14 01:00:26;;;;;;;25.17;16.33;;;2.30;99.90;;;;;;5093290;28;20959;-62
2022/01/14 01:02:53;;;;;;;26.73;15.93;;;2.30;99.90;;;;;;5093350;28;20453;-62
2022/01/14 01:05:22;;;;;;;22.00;14.80;;;2.30;99.90;;;;;;5093623;28;20816;-63
2022/01/14 01:08:00;;;;;;;22.53;16.20;;;2.20;99.90;;;;;;5093335;28;20443;-61
2022/01/14 01:10:27;;;;;;;22.27;16.23;;;2.20;99.90;;;;;;5093342;28;20471;-61
2022/01/14 01:12:59;;;;;;;25.70;16.53;;;2.30;99.90;;;;;;5093280;28;20451;-61
2022/01/14 01:15:26;;;;;;;24.33;18.00;;;2.20;99.90;;;;;;5093254;28;20431;-62
2022/01/14 01:17:53;;;;;;;20.80;16.10;;;2.10;99.90;;;;;;5092229;28;20458;-62
2022/01/14 01:20:22;;;;;;;25.23;17.97;;;2.20;99.90;;;;;;5092855;28;20459;-62
2022/01/14 01:22:51;;;;;;;30.80;17.80;;;2.20;99.90;;;;;;5093385;28;20483;-61
2022/01/14 01:25:22;;;;;;;24.67;17.70;;;2.30;99.90;;;;;;5093446;28;20451;-62
2022/01/14 01:27:50;;;;;;;23.07;17.87;;;2.20;99.90;;;;;;5093211;28;20514;-62
2022/01/14 01:30:47;;;;;;;27.00;17.20;;;2.20;99.90;;;;;;5091712;28;20554;-62
2022/01/14 01:33:07;;;;;;;24.67;17.27;;;2.30;99.90;;;;;;5092625;28;20446;-62
2022/01/14 01:35:36;;;;;;;33.50;16.60;;;2.20;99.90;;;;;;5093204;28;20572;-62
2022/01/14 01:38:03;;;;;;;26.43;18.43;;;2.20;99.90;;;;;;5092889;28;20459;-62
2022/01/14 01:40:30;;;;;;;24.90;16.70;;;2.20;99.90;;;;;;5092753;28;20487;-61
2022/01/14 01:43:02;;;;;;;26.67;18.43;;;2.30;99.90;;;;;;5093037;28;20444;-62
2022/01/14 01:45:29;;;;;;;24.30;15.90;;;2.20;99.90;;;;;;5093000;28;20435;-62
2022/01/14 01:47:56;;;;;;;27.13;17.53;;;2.10;99.90;;;;;;5092755;28;20558;-62
2022/01/14 01:50:25;;;;;;;22.90;15.87;;;2.20;99.90;;;;;;5092619;28;20448;-62
2022/01/14 01:52:55;;;;;;;22.40;16.43;;;2.20;99.90;;;;;;5092820;28;20941;-62
2022/01/14 01:55:23;;;;;;;27.17;18.67;;;2.10;99.90;;;;;;5092414;28;20930;-62
2022/01/14 01:57:51;;;;;;;30.27;20.20;;;2.00;99.90;;;;;;5092513;28;20432;-62
2022/01/14 02:00:21;;;;;;;32.50;20.50;;;1.70;99.90;;;;;;5092615;28;20466;-62
2022/01/14 02:02:50;;;;;;;23.70;19.27;;;1.70;99.90;;;;;;5092544;28;20478;-62
2022/01/14 02:05:17;;;;;;;26.80;19.93;;;1.60;99.90;;;;;;5092287;28;20453;-62
2022/01/14 02:07:45;;;;;;;29.83;21.10;;;1.60;99.90;;;;;;5092746;28;20530;-62
2022/01/14 02:10:14;;;;;;;28.23;20.03;;;1.60;99.90;;;;;;5092390;28;20785;-62
2022/01/14 02:12:49;;;;;;;28.87;21.00;;;1.60;99.90;;;;;;5092293;28;20428;-62
2022/01/14 02:15:28;;;;;;;29.53;19.43;;;1.60;99.90;;;;;;5092558;28;20431;-62
2022/01/14 02:18:25;;;;;;;31.20;21.03;;;1.70;99.90;;;;;;5091871;28;20455;-62
2022/01/14 02:23:41;;;;;;;26.00;19.77;;;1.60;99.90;;;;;;5092353;28;20932;-61
2022/01/14 02:26:08;;;;;;;24.97;17.47;;;1.60;99.90;;;;;;5092697;28;20511;-61
2022/01/14 02:28:35;;;;;;;29.30;21.83;;;1.70;99.90;;;;;;5092254;28;20447;-62
2022/01/14 02:31:02;;;;;;;26.40;18.63;;;1.60;99.90;;;;;;5092434;28;20554;-62
2022/01/14 02:33:30;;;;;;;26.00;18.57;;;1.70;99.90;;;;;;5092544;28;20447;-62
2022/01/14 02:36:01;;;;;;;26.03;18.97;;;1.60;99.90;;;;;;5092324;28;20453;-62
2022/01/14 02:38:28;;;;;;;24.17;17.07;;;1.50;99.90;;;;;;5092092;28;20431;-62
2022/01/14 02:40:55;;;;;;;24.90;18.10;;;1.60;99.90;;;;;;5092582;28;20490;-62
2022/01/14 02:43:23;;;;;;;29.97;21.40;;;1.50;99.90;;;;;;5096313;28;20874;-62
2022/01/14 02:45:53;;;;;;;26.40;18.43;;;1.40;99.90;;;;;;5096024;28;20443;-62
2022/01/14 02:48:22;;;;;;;26.63;19.10;;;1.40;99.90;;;;;;5095681;28;20491;-61
2022/01/14 02:50:56;;;;;;;31.87;20.17;;;1.50;99.90;;;;;;5095721;28;20464;-61
2022/01/14 02:53:29;;;;;;;21.20;17.20;;;1.50;99.90;;;;;;5095860;28;20426;-61
2022/01/14 02:55:59;;;;;;;27.80;19.47;;;1.50;99.90;;;;;;5095969;28;20432;-62
2022/01/14 02:58:29;;;;;;;29.03;19.13;;;1.70;99.90;;;;;;5095909;28;20446;-61
2022/01/14 03:00:59;;;;;;;27.63;16.90;;;1.70;99.90;;;;;;5096015;28;20479;-61
2022/01/14 03:03:27;;;;;;;24.43;20.10;;;1.70;99.90;;;;;;5095934;28;20799;-62
2022/01/14 03:05:55;;;;;;;28.80;18.83;;;1.90;99.90;;;;;;5095801;28;20458;-62
2022/01/14 03:08:24;;;;;;;26.87;17.80;;;1.90;99.90;;;;;;5095649;28;20445;-62
2022/01/14 03:10:56;;;;;;;31.87;19.37;;;1.90;99.90;;;;;;5095852;28;20471;-62
2022/01/14 03:13:23;;;;;;;22.07;15.73;;;1.90;99.90;;;;;;5095636;28;20439;-61
2022/01/14 03:15:51;;;;;;;20.93;16.10;;;1.90;99.90;;;;;;5095444;28;20458;-62
2022/01/14 03:18:24;;;;;;;23.03;17.70;;;1.80;99.90;;;;;;5095215;28;20479;-62
2022/01/14 03:21:00;;;;;;;23.47;17.73;;;1.70;99.90;;;;;;5095711;28;20555;-62
2022/01/14 03:23:30;;;;;;;29.30;17.30;;;1.60;99.90;;;;;;5095060;28;20924;-62
2022/01/14 03:25:59;;;;;;;25.67;17.90;;;1.60;99.90;;;;;;5095609;28;20447;-62
2022/01/14 03:28:26;;;;;;;25.80;18.67;;;1.60;99.90;;;;;;5095389;28;20807;-61
2022/01/14 03:30:54;;;;;;;20.63;17.37;;;1.60;99.90;;;;;;5094888;28;20551;-61
2022/01/14 03:33:22;;;;;;;36.53;19.30;;;1.60;99.90;;;;;;5094840;28;20457;-62
2022/01/14 03:35:50;;;;;;;25.30;19.20;;;1.60;99.90;;;;;;5094882;28;20447;-61
2022/01/14 03:38:18;;;;;;;26.87;18.40;;;1.60;99.90;;;;;;5095221;28;20454;-62
2022/01/14 03:40:47;;;;;;;26.73;17.27;;;1.80;99.90;;;;;;5094604;28;20969;-62
2022/01/14 03:43:14;;;;;;;20.93;15.33;;;1.80;99.90;;;;;;5095035;28;20475;-61
2022/01/14 03:45:41;;;;;;;24.80;17.83;;;1.70;99.90;;;;;;5095116;28;20439;-61
2022/01/14 03:48:09;;;;;;;27.57;18.33;;;1.60;99.90;;;;;;5094963;28;20562;-62
2022/01/14 03:50:36;;;;;;;26.27;16.90;;;1.50;99.90;;;;;;5094541;28;20794;-61
2022/01/14 03:53:03;;;;;;;21.30;18.23;;;1.70;99.90;;;;;;5093587;28;20475;-61
2022/01/14 03:55:31;;;;;;;30.93;19.10;;;1.70;99.90;;;;;;5094462;28;20440;-62
2022/01/14 03:57:59;;;;;;;30.10;21.33;;;1.70;99.90;;;;;;5094772;28;20439;-62
2022/01/14 04:00:28;;;;;;;31.33;19.20;;;1.60;99.90;;;;;;5094668;28;20550;-61
2022/01/14 04:02:56;;;;;;;27.17;20.77;;;1.50;99.90;;;;;;5094204;28;20835;-61
2022/01/14 04:05:23;;;;;;;25.13;19.07;;;1.60;99.90;;;;;;5094225;28;20443;-62
2022/01/14 04:07:50;;;;;;;29.00;20.90;;;1.60;99.90;;;;;;5094662;28;20439;-62
2022/01/14 04:10:18;;;;;;;27.30;19.70;;;1.70;99.90;;;;;;5094129;28;20448;-61
2022/01/14 04:12:50;;;;;;;25.23;19.83;;;1.70;99.90;;;;;;5094455;28;20490;-61
2022/01/14 04:15:37;;;;;;;33.20;19.60;;;1.60;99.90;;;;;;5094104;28;20432;-62
2022/01/14 04:18:05;;;;;;;27.57;21.13;;;1.60;99.90;;;;;;5093835;28;20460;-61
2022/01/14 04:20:34;;;;;;;29.50;20.17;;;1.60;99.90;;;;;;5094288;28;20558;-61
2022/01/14 04:23:02;;;;;;;22.43;18.93;;;1.60;99.90;;;;;;5093805;28;20997;-62
2022/01/14 04:25:29;;;;;;;26.67;20.03;;;1.40;99.90;;;;;;5094180;28;20484;-62
2022/01/14 04:27:56;;;;;;;31.50;22.37;;;1.40;99.90;;;;;;5094243;28;20497;-61
2022/01/14 04:30:25;;;;;;;34.23;19.77;;;1.50;99.90;;;;;;5093651;28;20447;-62
2022/01/14 04:32:53;;;;;;;24.17;18.20;;;1.40;99.90;;;;;;5094066;28;20493;-62
2022/01/14 04:35:20;;;;;;;22.70;18.70;;;1.50;99.90;;;;;;5093855;28;20543;-62
2022/01/14 04:37:47;;;;;;;29.40;19.83;;;1.70;99.90;;;;;;5093624;28;20451;-62
2022/01/14 04:40:15;;;;;;;31.30;18.40;;;1.70;99.90;;;;;;5093478;28;20447;-62
2022/01/14 04:42:43;;;;;;;28.10;17.83;;;1.60;99.90;;;;;;5093862;28;20490;-61
2022/01/14 04:45:14;;;;;;;26.40;21.10;;;1.50;99.90;;;;;;5093891;28;20466;-62
2022/01/14 04:47:45;;;;;;;27.80;19.53;;;1.40;99.90;;;;;;5093642;28;20807;-62
2022/01/14 04:50:14;;;;;;;30.13;19.73;;;1.40;99.90;;;;;;5093747;28;20431;-62
2022/01/14 04:52:42;;;;;;;25.67;18.20;;;1.40;99.90;;;;;;5093531;28;20440;-61
2022/01/14 04:55:11;;;;;;;22.30;18.80;;;1.40;99.90;;;;;;5093772;28;20805;-62
2022/01/14 04:57:38;;;;;;;25.17;19.87;;;1.40;99.90;;;;;;5093508;28;20475;-62
2022/01/14 05:00:08;;;;;;;24.80;18.23;;;1.40;99.90;;;;;;5093570;28;20534;-62
2022/01/14 05:02:36;;;;;;;33.37;18.23;;;1.50;99.90;;;;;;5093853;28;20475;-61
2022/01/14 05:05:05;;;;;;;30.43;18.60;;;1.40;99.90;;;;;;5093042;28;20448;-62
2022/01/14 05:07:32;;;;;;;22.77;17.20;;;1.20;99.90;;;;;;5093335;28;20762;-62
2022/01/14 05:10:09;;;;;;;27.57;17.80;;;1.20;99.90;;;;;;5093227;28;21028;-62
2022/01/14 05:12:38;;;;;;;22.50;16.87;;;1.30;99.90;;;;;;5093478;28;20423;-62
2022/01/14 05:15:07;;;;;;;22.33;18.63;;;1.40;99.90;;;;;;5093216;28;20452;-62
2022/01/14 05:17:35;;;;;;;26.67;18.43;;;1.40;99.90;;;;;;5093163;28;20811;-62
2022/01/14 05:20:04;;;;;;;24.80;17.23;;;1.50;99.90;;;;;;5092863;28;20562;-62
2022/01/14 05:22:31;;;;;;;23.10;16.77;;;1.50;99.90;;;;;;5092757;28;20525;-62
2022/01/14 05:24:58;;;;;;;25.77;18.80;;;1.50;99.90;;;;;;5092713;28;20479;-61
2022/01/14 05:27:26;;;;;;;27.10;18.60;;;1.40;99.90;;;;;;5092873;28;20758;-61
2022/01/14 05:29:56;;;;;;;20.30;15.80;;;1.40;99.90;;;;;;5092886;28;20507;-62
2022/01/14 05:32:24;;;;;;;21.63;17.73;;;1.50;99.90;;;;;;5092958;28;20471;-62
2022/01/14 05:34:51;;;;;;;21.50;17.63;;;1.50;99.90;;;;;;5093338;28;20938;-61
2022/01/14 05:37:20;;;;;;;23.53;17.40;;;1.60;99.90;;;;;;5092844;28;20546;-62
2022/01/14 05:39:48;;;;;;;21.17;16.47;;;1.70;99.90;;;;;;5092647;28;20534;-62
2022/01/14 05:42:15;;;;;;;24.53;17.90;;;1.70;99.90;;;;;;5092742;28;20483;-62
2022/01/14 05:44:42;;;;;;;22.13;17.60;;;1.60;99.90;;;;;;5093069;28;20852;-62
2022/01/14 05:47:09;;;;;;;22.30;18.23;;;1.70;99.90;;;;;;5092903;28;20455;-62
2022/01/14 05:49:36;;;;;;;24.70;18.57;;;1.50;99.90;;;;;;5092471;28;20969;-62
2022/01/14 05:52:04;;;;;;;25.67;17.60;;;1.60;99.90;;;;;;5092723;28;20465;-61
2022/01/14 05:54:32;;;;;;;26.40;17.03;;;1.60;99.90;;;;;;5092409;28;20443;-61
2022/01/14 05:56:59;;;;;;;22.00;19.33;;;1.60;99.90;;;;;;5092824;28;20551;-61
2022/01/14 05:59:27;;;;;;;29.37;18.80;;;1.50;99.90;;;;;;5092436;28;20538;-61
2022/01/14 06:01:54;;;;;;;28.20;20.30;;;1.40;99.90;;;;;;5092170;28;20471;-61
2022/01/14 06:04:22;;;;;;;23.93;17.10;;;1.50;99.90;;;;;;5092285;28;20443;-62
2022/01/14 06:06:49;;;;;;;24.80;18.40;;;1.60;99.90;;;;;;5092383;28;20455;-61
2022/01/14 06:09:16;;;;;;;28.37;19.60;;;1.50;99.90;;;;;;5092295;28;20458;-60
2022/01/14 06:11:44;;;;;;;24.83;17.77;;;1.50;99.90;;;;;;5092534;28;20463;-62
2022/01/14 06:14:11;;;;;;;19.23;14.80;;;1.50;99.90;;;;;;5092515;28;20447;-61
2022/01/14 06:16:39;;;;;;;21.13;16.53;;;1.50;99.90;;;;;;5094044;28;20453;-61
2022/01/14 06:19:06;;;;;;;22.67;18.90;;;1.50;99.90;;;;;;5096527;28;20463;-61
2022/01/14 06:21:33;;;;;;;22.60;18.37;;;1.40;99.90;;;;;;5096320;28;20470;-61
2022/01/14 06:24:00;;;;;;;25.53;19.10;;;1.60;99.90;;;;;;5096005;28;20897;-61
2022/01/14 06:26:27;;;;;;;25.63;17.50;;;1.60;99.90;;;;;;5096020;28;20453;-61
2022/01/14 06:28:56;;;;;;;18.63;16.40;;;1.60;99.90;;;;;;5096341;28;20797;-62
2022/01/14 06:31:23;;;;;;;23.20;17.60;;;1.40;99.90;;;;;;5095919;28;20796;-61
2022/01/14 06:33:51;;;;;;;28.10;17.70;;;1.40;99.90;;;;;;5095719;28;20934;-61
2022/01/14 06:36:18;;;;;;;21.63;16.57;;;1.30;99.90;;;;;;5096211;28;20950;-61
2022/01/14 06:38:45;;;;;;;21.07;17.20;;;1.20;99.90;;;;;;5096140;28;20806;-62
2022/01/14 06:41:12;;;;;;;21.23;16.70;;;1.30;99.90;;;;;;5095811;28;20989;-62
2022/01/14 06:43:39;;;;;;;21.10;16.77;;;1.40;99.90;;;;;;5095562;28;20859;-61
2022/01/14 06:46:08;;;;;;;22.57;17.13;;;1.40;99.90;;;;;;5095517;28;20462;-62
2022/01/14 06:48:35;;;;;;;19.67;15.70;;;1.40;99.90;;;;;;5095829;28;20455;-62
2022/01/14 06:51:02;;;;;;;25.20;16.10;;;1.40;99.90;;;;;;5095343;28;20546;-61
2022/01/14 06:53:29;;;;;;;19.37;15.10;;;1.40;99.90;;;;;;5095409;28;20941;-61
2022/01/14 06:55:57;;;;;;;23.43;15.33;;;1.50;99.90;;;;;;5095167;28;20550;-62
2022/01/14 06:58:24;;;;;;;20.50;16.13;;;1.50;99.90;;;;;;5096145;28;20443;-61
2022/01/14 07:00:53;;;;;;;18.80;16.47;;;1.40;99.90;;;;;;5095934;28;20554;-61
2022/01/14 07:03:22;;;;;;;22.30;16.97;;;1.30;99.90;;;;;;5095736;28;20494;-62
2022/01/14 07:05:49;;;;;;;21.93;16.27;;;1.30;99.90;;;;;;5095779;28;20447;-61
2022/01/14 07:08:16;;;;;;;21.37;17.20;;;1.40;99.90;;;;;;5095845;28;20448;-62
2022/01/14 07:10:43;;;;;;;30.17;17.70;;;1.20;99.90;;;;;;5095283;28;20482;-61
2022/01/14 07:13:10;;;;;;;26.67;18.87;;;1.20;99.90;;;;;;5095447;28;20485;-62
2022/01/14 07:15:37;;;;;;;26.43;17.53;;;1.30;99.90;;;;;;5095905;28;20450;-61
2022/01/14 07:18:05;;;;;;;22.93;17.70;;;1.30;99.90;;;;;;5095291;28;20784;-61
2022/01/14 07:20:33;;;;;;;22.37;18.00;;;1.30;99.90;;;;;;5095288;28;20554;-61
2022/01/14 07:23:00;;;;;;;27.10;19.47;;;1.50;99.90;;;;;;5095208;28;20483;-61
2022/01/14 07:25:28;;;;;;;25.37;17.57;;;1.50;99.90;;;;;;5095053;28;20519;-62
2022/01/14 07:27:56;;;;;;;22.07;17.50;;;1.40;99.90;;;;;;5094923;28;20759;-62
2022/01/14 07:30:24;;;;;;;20.00;16.50;;;1.30;99.90;;;;;;5094922;28;20487;-62
2022/01/14 07:32:51;;;;;;;25.87;17.30;;;1.50;99.90;;;;;;5094850;28;20450;-62
2022/01/14 07:35:18;;;;;;;27.80;19.27;;;1.50;99.90;;;;;;5094928;28;20550;-61
2022/01/14 07:37:47;;;;;;;21.00;15.70;;;1.50;99.90;;;;;;5094924;28;20490;-61
2022/01/14 07:40:14;;;;;;;20.83;15.70;;;1.40;99.90;;;;;;5094538;28;20450;-61
2022/01/14 07:42:42;;;;;;;23.03;16.60;;;1.30;99.90;;;;;;5094404;28;20529;-62
2022/01/14 07:45:09;;;;;;;22.07;17.80;;;1.20;99.90;;;;;;5094741;28;20858;-61
2022/01/14 07:47:37;;;;;;;26.13;17.60;;;1.20;99.90;;;;;;5094970;28;20456;-61
2022/01/14 07:50:04;;;;;;;20.30;16.33;;;1.30;99.90;;;;;;5094550;28;20447;-61
2022/01/14 07:52:32;;;;;;;21.63;17.20;;;1.40;99.90;;;;;;5094475;28;20483;-61
2022/01/14 07:55:00;;;;;;;24.83;17.40;;;1.50;99.90;;;;;;5094422;28;20458;-61
2022/01/14 07:57:27;;;;;;;22.40;15.60;;;1.60;99.90;;;;;;5094307;28;20905;-61
2022/01/14 07:59:55;;;;;;;26.30;17.67;;;1.70;99.90;;;;;;5094499;28;20447;-61
2022/01/14 08:02:22;;;;;;;22.10;17.50;;;1.70;99.90;;;;;;5094297;28;20978;-61
2022/01/14 08:04:49;;;;;;;23.63;16.87;;;1.50;99.90;;;;;;5094271;28;20534;-61
2022/01/14 08:07:22;;;;;;;23.80;17.60;;;1.60;99.90;;;;;;5094139;28;20968;-61
2022/01/14 08:09:49;;;;;;;20.57;18.43;;;1.80;99.90;;;;;;5094425;28;20788;-61
2022/01/14 08:12:18;;;;;;;22.20;16.97;;;1.70;99.90;;;;;;5093853;28;20470;-61
2022/01/14 08:14:45;;;;;;;22.10;16.50;;;1.70;99.90;;;;;;5094295;28;20470;-61
2022/01/14 08:17:15;;;;;;;19.73;15.37;;;1.80;99.90;;;;;;5094443;28;20491;-62
2022/01/14 08:19:42;;;;;;;20.47;16.30;;;1.70;99.90;;;;;;5094314;28;20483;-62
2022/01/14 08:22:09;;;;;;;27.20;17.70;;;1.90;99.90;;;;;;5094458;28;20468;-61
2022/01/14 08:24:37;;;;;;;22.07;16.43;;;2.10;99.90;;;;;;5094328;28;20439;-62
2022/01/14 08:27:05;;;;;;;23.83;18.17;;;2.20;99.90;;;;;;5094273;28;20451;-62
2022/01/14 08:29:34;;;;;;;24.13;18.67;;;2.30;99.90;;;;;;5094505;28;20451;-62
2022/01/14 08:32:02;;;;;;;22.33;16.50;;;2.20;99.90;;;;;;5093907;28;20562;-61
2022/01/14 08:34:29;;;;;;;23.27;17.23;;;2.20;99.90;;;;;;5094193;28;20872;-62
2022/01/14 08:36:57;;;;;;;26.70;18.30;;;2.20;99.90;;;;;;5094045;28;20450;-62
2022/01/14 08:39:24;;;;;;;21.17;16.50;;;2.20;99.90;;;;;;5093801;28;20450;-62
2022/01/14 08:41:58;;;;;;;22.47;17.37;;;2.20;99.90;;;;;;5093693;28;20467;-62
2022/01/14 08:44:25;;;;;;;24.10;17.27;;;2.30;99.90;;;;;;5093815;28;20574;-61
2022/01/14 08:49:34;;;;;;;24.00;16.60;;;2.50;99.90;;;;;;5092188;28;20819;-61
2022/01/14 08:52:02;;;;;;;21.17;16.70;;;2.50;99.90;;;;;;5093598;28;20553;-62
2022/01/14 08:54:29;;;;;;;22.13;16.10;;;2.60;99.90;;;;;;5093705;28;20435;-62
2022/01/14 08:56:56;;;;;;;24.90;17.07;;;2.60;99.90;;;;;;5093744;28;20450;-62
2022/01/14 08:59:24;;;;;;;22.80;16.20;;;2.60;99.90;;;;;;5093330;28;20537;-62
2022/01/14 09:01:51;;;;;;;24.90;17.30;;;2.60;99.90;;;;;;5093530;28;20474;-62
2022/01/14 09:04:19;;;;;;;17.93;15.20;;;2.70;99.90;;;;;;5092971;28;20479;-61
2022/01/14 09:06:47;;;;;;;21.90;16.57;;;2.80;99.90;;;;;;5093283;28;20447;-62
2022/01/14 09:09:14;;;;;;;20.23;16.60;;;2.80;99.90;;;;;;5093658;28;20440;-62
2022/01/14 09:11:42;;;;;;;25.77;17.23;;;2.90;99.90;;;;;;5093335;28;20475;-62
2022/01/14 09:14:09;;;;;;;24.17;16.53;;;3.00;99.90;;;;;;5093140;28;20435;-62
2022/01/14 09:16:36;;;;;;;21.07;16.10;;;3.10;99.90;;;;;;5093094;28;20934;-62
2022/01/14 09:19:04;;;;;;;21.50;17.70;;;2.90;99.90;;;;;;5092791;28;20590;-61
2022/01/14 09:21:32;;;;;;;20.27;16.83;;;3.00;99.90;;;;;;5093194;28;20499;-59
2022/01/14 09:24:04;;;;;;;20.30;16.70;;;3.00;99.90;;;;;;5093265;28;20475;-58
2022/01/14 09:26:32;;;;;;;25.50;17.30;;;3.20;99.90;;;;;;5093171;28;20451;-58
2022/01/14 09:28:59;;;;;;;20.87;17.20;;;3.30;99.90;;;;;;5092860;28;20479;-58
2022/01/14 09:31:26;;;;;;;22.07;17.40;;;3.40;99.90;;;;;;5093169;28;20471;-57
2022/01/14 09:33:54;;;;;;;19.50;15.80;;;3.50;99.90;;;;;;5093202;28;20534;-57
2022/01/14 09:36:22;;;;;;;24.87;16.77;;;3.50;99.90;;;;;;5092914;28;20946;-60
2022/01/14 09:38:50;;;;;;;20.70;16.63;;;3.50;99.90;;;;;;5093148;28;20618;-63
2022/01/14 09:41:19;;;;;;;31.03;15.20;;;3.40;99.90;;;;;;5092661;28;20467;-57
2022/01/14 09:43:46;;;;;;;22.57;17.13;;;3.40;99.90;;;;;;5092603;28;20815;-59
2022/01/14 09:46:13;;;;;;;21.60;16.20;;;3.60;99.90;;;;;;5092620;28;20494;-60
2022/01/14 09:48:41;;;;;;;20.60;15.93;;;3.70;99.90;;;;;;5093296;28;20463;-57
2022/01/14 09:51:09;;;;;;;25.23;15.93;;;3.70;99.90;;;;;;5091737;28;20538;-60
2022/01/14 09:53:36;;;;;;;22.50;13.93;;;3.80;99.90;;;;;;5092721;28;20443;-56
2022/01/14 09:56:05;;;;;;;22.63;15.43;;;3.80;99.90;;;;;;5093109;28;20441;-56
2022/01/14 09:58:36;;;;;;;18.90;14.60;;;3.90;99.90;;;;;;5092561;28;20541;-57
2022/01/14 10:01:09;;;;;;;18.17;15.10;;;4.00;99.90;;;;;;5092317;28;20459;-58
2022/01/14 10:03:49;;;;;;;20.10;14.03;;;3.90;99.90;;;;;;5092609;28;20475;-56
2022/01/14 10:06:37;;;;;;;18.50;14.70;;;4.00;99.90;;;;;;5092826;28;20443;-58
2022/01/14 10:09:08;;;;;;;22.20;16.70;;;4.10;99.90;;;;;;5092515;28;20482;-60
2022/01/14 10:11:38;;;;;;;23.40;16.70;;;4.30;99.90;;;;;;5092743;28;20844;-61
2022/01/14 10:14:07;;;;;;;19.87;17.20;;;4.40;99.90;;;;;;5092678;28;20436;-59
2022/01/14 10:16:34;;;;;;;22.97;16.77;;;4.30;99.90;;;;;;5092669;28;20440;-60
2022/01/14 10:19:02;;;;;;;21.67;15.70;;;4.40;99.90;;;;;;5092578;28;20479;-59
2022/01/14 10:21:34;;;;;;;19.70;17.13;;;4.50;99.90;;;;;;5092401;28;20467;-58
2022/01/14 10:24:02;;;;;;;22.10;16.63;;;4.40;99.90;;;;;;5092386;28;20520;-55
2022/01/14 10:26:48;;;;;;;24.40;16.03;;;4.50;99.90;;;;;;5093224;28;20479;-56
2022/01/14 10:29:25;;;;;;;23.90;16.23;;;4.60;99.90;;;;;;5092746;28;20494;-54
2022/01/14 10:31:53;;;;;;;22.53;17.00;;;4.90;99.90;;;;;;5092148;28;21003;-57
2022/01/14 10:34:21;;;;;;;23.33;15.50;;;5.00;99.90;;;;;;5092312;28;20531;-54
2022/01/14 10:36:50;;;;;;;22.13;16.43;;;5.20;99.90;;;;;;5092125;28;20926;-58
2022/01/14 10:39:23;;;;;;;21.17;16.87;;;5.40;99.90;;;;;;5092340;28;20462;-55
2022/01/14 10:41:55;;;;;;;20.77;16.40;;;5.50;99.90;;;;;;5092398;28;20474;-53
2022/01/14 10:44:28;;;;;;;19.53;15.70;;;5.60;99.90;;;;;;5092303;28;20471;-55
2022/01/14 10:47:12;;;;;;;18.80;16.80;;;5.70;99.90;;;;;;5092163;28;20457;-57
2022/01/14 10:49:40;;;;;;;19.47;15.50;;;6.40;99.90;;;;;;5092102;28;20468;-57
2022/01/14 10:52:13;;;;;;;21.93;15.60;;;7.90;99.90;;;;;;5092012;28;20985;-57
2022/01/14 10:54:41;;;;;;;21.43;17.30;;;8.90;99.90;;;;;;5092263;28;20450;-57
2022/01/14 10:57:21;;;;;;;22.83;15.80;;;9.90;97.60;;;;;;5092366;28;20443;-57
2022/01/14 10:59:50;;;;;;;21.67;16.20;;;11.10;95.20;;;;;;5091987;28;20431;-59
2022/01/14 11:02:35;;;;;;;19.90;14.13;;;11.80;94.50;;;;;;5093162;28;20818;-59
2022/01/14 11:05:13;;;;;;;18.17;15.90;;;12.60;92.30;;;;;;5095284;28;20699;-59
2022/01/14 11:07:41;;;;;;;26.97;16.07;;;13.30;91.20;;;;;;5095884;28;20412;-59
2022/01/14 11:10:21;;;;;;;21.20;17.50;;;13.10;90.60;;;;;;5095540;28;20490;-60
2022/01/14 11:12:50;;;;;;;19.30;15.90;;;13.30;90.40;;;;;;5095125;28;20431;-59
2022/01/14 11:15:18;;;;;;;19.60;16.57;;;13.40;90.40;;;;;;5095286;28;20485;-59
2022/01/14 11:17:50;;;;;;;19.77;17.37;;;13.00;86.50;;;;;;5095343;28;20462;-58
2022/01/14 11:20:24;;;;;;;21.00;18.30;;;12.20;88.30;;;;;;5095026;28;20570;-58
2022/01/14 11:25:50;;;;;;;21.87;17.83;;;12.20;87.60;;;;;;5095098;28;20533;-58
2022/01/14 11:28:24;;;;;;;21.53;17.57;;;12.70;89.50;;;;;;5095360;28;20435;-59
2022/01/14 11:30:52;;;;;;;19.40;17.30;;;13.40;87.50;;;;;;5095014;28;20494;-60
2022/01/14 11:33:19;;;;;;;20.13;16.03;;;14.00;88.70;;;;;;5095047;28;20450;-60
2022/01/14 11:35:56;;;;;;;21.00;17.57;;;14.10;84.30;;;;;;5094859;28;20446;-60
2022/01/14 11:38:38;;;;;;;20.13;18.07;;;13.50;83.00;;;;;;5094970;28;20434;-59
2022/01/14 11:41:07;;;;;;;22.70;17.07;;;13.70;84.90;;;;;;5094572;28;20468;-60
2022/01/14 11:43:48;;;;;;;21.00;18.40;;;14.20;84.50;;;;;;5094896;28;20847;-59
2022/01/14 11:46:36;;;;;;;21.83;18.90;;;14.10;82.60;;;;;;5095204;28;20428;-58
2022/01/14 11:49:25;;;;;;;20.63;17.80;;;14.20;82.50;;;;;;5094537;28;20528;-59
2022/01/14 11:51:58;;;;;;;21.77;18.20;;;14.60;82.40;;;;;;5094507;28;20477;-59
2022/01/14 11:54:41;;;;;;;24.40;18.07;;;14.00;82.10;;;;;;5094512;28;20486;-59
2022/01/14 11:57:09;;;;;;;22.57;17.47;;;14.30;81.50;;;;;;5094609;28;20431;-60
2022/01/14 11:59:48;;;;;;;24.00;16.40;;;14.70;80.90;;;;;;5094582;28;20479;-58
2022/01/14 12:02:31;;;;;;;30.03;19.70;;;13.60;79.20;;;;;;5094555;28;20863;-59
2022/01/14 12:05:04;;;;;;;18.80;16.80;;;13.20;80.40;;;;;;5093835;28;21064;-59
2022/01/14 12:07:31;;;;;;;18.87;16.50;;;12.70;83.40;;;;;;5094322;28;20424;-59
2022/01/14 12:10:07;;;;;;;20.50;17.37;;;12.50;82.10;;;;;;5094673;28;20444;-59
2022/01/14 12:12:35;;;;;;;23.03;18.27;;;12.30;82.80;;;;;;5094673;28;20424;-59
2022/01/14 12:15:04;;;;;;;22.60;17.40;;;11.50;83.80;;;;;;5093134;28;20455;-59
2022/01/14 12:17:35;;;;;;;24.77;17.90;;;10.80;84.80;;;;;;5093977;28;20938;-59
2022/01/14 12:20:10;;;;;;;22.97;17.63;;;10.30;86.80;;;;;;5093635;28;20474;-59
2022/01/14 12:22:37;;;;;;;20.13;16.73;;;10.60;87.00;;;;;;5094049;28;20477;-59
2022/01/14 12:25:06;;;;;;;21.53;16.60;;;10.50;87.70;;;;;;5093734;28;20483;-59
2022/01/14 12:27:46;;;;;;;24.77;16.70;;;10.10;86.40;;;;;;5093921;28;20500;-59
2022/01/14 12:30:32;;;;;;;20.77;16.27;;;10.20;89.20;;;;;;5093901;28;20518;-59
2022/01/14 12:32:59;;;;;;;23.37;16.17;;;9.90;90.50;;;;;;5093887;28;20515;-59
2022/01/14 12:35:35;;;;;;;22.43;16.63;;;10.60;90.20;;;;;;5093839;28;20458;-59
2022/01/14 12:38:03;;;;;;;20.70;16.57;;;11.20;88.90;;;;;;5093580;28;20837;-58
2022/01/14 12:40:37;;;;;;;23.33;16.37;;;11.30;88.80;;;;;;5093623;28;20464;-57
2022/01/14 12:43:09;;;;;;;19.43;17.30;;;11.10;88.30;;;;;;5080327;28;20436;-57
2022/01/14 12:46:02;;;;;;;21.20;17.27;;;10.90;90.00;;;;;;5079994;28;20459;-58
2022/01/14 12:48:33;;;;;;;21.17;17.50;;;10.60;90.10;;;;;;5090901;28;20479;-56
2022/01/14 12:51:11;;;;;;;25.13;17.80;;;9.90;91.90;;;;;;5081109;28;20474;-55
2022/01/14 12:53:51;;;;;;;24.83;16.10;;;9.90;92.40;;;;;;5076871;28;20440;-56
2022/01/14 12:56:21;;;;;;;21.70;16.53;;;10.00;91.20;;;;;;5075495;28;20906;-52
2022/01/14 12:59:01;;;;;;;23.20;18.40;;;9.90;91.90;;;;;;5079832;28;20530;-53
2022/01/14 13:01:33;;;;;;;25.97;16.80;;;9.70;92.10;;;;;;5079101;28;20986;-55
2022/01/14 13:04:03;;;;;;;35.20;17.40;;;9.50;92.40;;;;;;5079044;28;20479;-54
2022/01/14 13:06:44;;;;;;;24.83;18.70;;;9.30;92.70;;;;;;5083089;28;20448;-55
2022/01/14 13:09:12;;;;;;;19.90;17.50;;;9.40;93.00;;;;;;5081133;28;20448;-54